sensor_id;sensor_type;location;lat;lon;timestamp;P1;durP1;ratioP1;P2;durP2;ratioP2
9848;SDS011;4963;51.444;6.528;2022-10-26T00:02:04;6.13;;;4.50;;
9848;SDS011;4963;51.444;6.528;2022-10-26T00:04:32;7.00;;;3.97;;
9848;SDS011;4963;51.444;6.528;2022-10-26T00:06:59;4.93;;;3.90;;
9848;SDS011;4963;51.444;6.528;2022-10-26T00:09:26;7.30;;;3.83;;
9848;SDS011;4963;51.444;6.528;2022-10-26T00:11:52;10.33;;;4.30;;
9848;SDS011;4963;51.444;6.528;2022-10-26T00:14:19;7.23;;;4.03;;
9848;SDS011;4963;51.444;6.528;2022-10-26T00:16:46;7.33;;;4.40;;
9848;SDS011;4963;51.444;6.528;2022-10-26T00:19:13;6.77;;;3.73;;
9848;SDS011;4963;51.444;6.528;2022-10-26T00:21:41;11.30;;;4.03;;
9848;SDS011;4963;51.444;6.528;2022-10-26T00:24:08;8.33;;;3.83;;
9848;SDS011;4963;51.444;6.528;2022-10-26T00:26:36;7.90;;;3.80;;
9848;SDS011;4963;51.444;6.528;2022-10-26T00:29:03;5.03;;;3.50;;
9848;SDS011;4963;51.444;6.528;2022-10-26T00:31:29;8.50;;;3.90;;
9848;SDS011;4963;51.444;6.528;2022-10-26T00:33:56;10.60;;;4.50;;
9848;SDS011;4963;51.444;6.528;2022-10-26T00:36:24;7.87;;;4.20;;
9848;SDS011;4963;51.444;6.528;2022-10-26T00:38:53;5.20;;;3.70;;
9848;SDS011;4963;51.444;6.528;2022-10-26T00:41:22;7.40;;;3.67;;
9848;SDS011;4963;51.444;6.528;2022-10-26T00:43:50;6.50;;;3.50;;
9848;SDS011;4963;51.444;6.528;2022-10-26T00:46:17;5.90;;;3.77;;
9848;SDS011;4963;51.444;6.528;2022-10-26T00:48:48;5.93;;;3.53;;
9848;SDS011;4963;51.444;6.528;2022-10-26T00:51:19;6.73;;;4.30;;
9848;SDS011;4963;51.444;6.528;2022-10-26T00:53:50;6.73;;;3.83;;
9848;SDS011;4963;51.444;6.528;2022-10-26T00:56:19;6.53;;;3.47;;
9848;SDS011;4963;51.444;6.528;2022-10-26T00:58:46;6.60;;;3.87;;
9848;SDS011;4963;51.444;6.528;2022-10-26T01:01:13;7.77;;;3.80;;
9848;SDS011;4963;51.444;6.528;2022-10-26T01:03:40;6.40;;;3.87;;
9848;SDS011;4963;51.444;6.528;2022-10-26T01:06:08;7.47;;;3.60;;
9848;SDS011;4963;51.444;6.528;2022-10-26T01:08:36;5.73;;;3.90;;
9848;SDS011;4963;51.444;6.528;2022-10-26T01:11:05;5.97;;;3.80;;
9848;SDS011;4963;51.444;6.528;2022-10-26T01:13:32;5.60;;;3.47;;
9848;SDS011;4963;51.444;6.528;2022-10-26T01:16:02;13.30;;;3.80;;
9848;SDS011;4963;51.444;6.528;2022-10-26T01:18:46;8.00;;;4.07;;
9848;SDS011;4963;51.444;6.528;2022-10-26T01:21:29;5.40;;;3.50;;
9848;SDS011;4963;51.444;6.528;2022-10-26T01:24:17;4.73;;;2.97;;
9848;SDS011;4963;51.444;6.528;2022-10-26T01:27:00;6.40;;;3.60;;
9848;SDS011;4963;51.444;6.528;2022-10-26T01:32:50;5.57;;;3.07;;
9848;SDS011;4963;51.444;6.528;2022-10-26T01:35:24;6.20;;;2.60;;
9848;SDS011;4963;51.444;6.528;2022-10-26T01:37:56;9.20;;;2.87;;
9848;SDS011;4963;51.444;6.528;2022-10-26T01:40:30;6.97;;;3.03;;
9848;SDS011;4963;51.444;6.528;2022-10-26T01:43:01;5.57;;;2.87;;
9848;SDS011;4963;51.444;6.528;2022-10-26T01:45:32;5.00;;;3.17;;
9848;SDS011;4963;51.444;6.528;2022-10-26T01:48:01;4.83;;;2.90;;
9848;SDS011;4963;51.444;6.528;2022-10-26T01:50:29;4.20;;;2.50;;
9848;SDS011;4963;51.444;6.528;2022-10-26T01:52:57;5.77;;;2.53;;
9848;SDS011;4963;51.444;6.528;2022-10-26T01:55:42;6.77;;;3.10;;
9848;SDS011;4963;51.444;6.528;2022-10-26T01:58:14;8.33;;;2.80;;
9848;SDS011;4963;51.444;6.528;2022-10-26T02:01:04;4.97;;;2.30;;
9848;SDS011;4963;51.444;6.528;2022-10-26T02:03:40;2.90;;;2.07;;
9848;SDS011;4963;51.444;6.528;2022-10-26T02:06:16;5.70;;;2.60;;
9848;SDS011;4963;51.444;6.528;2022-10-26T02:08:51;6.50;;;2.87;;
9848;SDS011;4963;51.444;6.528;2022-10-26T02:11:24;4.93;;;2.50;;
9848;SDS011;4963;51.444;6.528;2022-10-26T02:14:03;4.80;;;2.23;;
9848;SDS011;4963;51.444;6.528;2022-10-26T02:16:36;8.00;;;2.63;;
9848;SDS011;4963;51.444;6.528;2022-10-26T02:19:13;6.60;;;2.40;;
9848;SDS011;4963;51.444;6.528;2022-10-26T02:21:52;5.50;;;2.10;;
9848;SDS011;4963;51.444;6.528;2022-10-26T02:24:22;3.97;;;2.70;;
9848;SDS011;4963;51.444;6.528;2022-10-26T02:26:51;5.33;;;2.53;;
9848;SDS011;4963;51.444;6.528;2022-10-26T02:29:20;9.03;;;2.50;;
9848;SDS011;4963;51.444;6.528;2022-10-26T02:31:49;6.80;;;2.80;;
9848;SDS011;4963;51.444;6.528;2022-10-26T02:34:20;3.80;;;2.20;;
9848;SDS011;4963;51.444;6.528;2022-10-26T02:36:50;4.17;;;2.43;;
9848;SDS011;4963;51.444;6.528;2022-10-26T02:39:20;6.90;;;2.60;;
9848;SDS011;4963;51.444;6.528;2022-10-26T02:41:48;3.07;;;2.23;;
9848;SDS011;4963;51.444;6.528;2022-10-26T02:44:17;6.50;;;2.50;;
9848;SDS011;4963;51.444;6.528;2022-10-26T02:46:49;3.73;;;2.30;;
9848;SDS011;4963;51.444;6.528;2022-10-26T02:49:16;4.70;;;2.07;;
9848;SDS011;4963;51.444;6.528;2022-10-26T02:51:46;4.13;;;1.73;;
9848;SDS011;4963;51.444;6.528;2022-10-26T02:54:17;4.27;;;2.43;;
9848;SDS011;4963;51.444;6.528;2022-10-26T02:56:52;4.13;;;2.20;;
9848;SDS011;4963;51.444;6.528;2022-10-26T02:59:22;6.63;;;2.37;;
9848;SDS011;4963;51.444;6.528;2022-10-26T03:01:53;6.63;;;2.67;;
9848;SDS011;4963;51.444;6.528;2022-10-26T03:04:26;5.93;;;2.30;;
9848;SDS011;4963;51.444;6.528;2022-10-26T03:06:55;6.33;;;2.20;;
9848;SDS011;4963;51.444;6.528;2022-10-26T03:09:22;2.60;;;1.80;;
9848;SDS011;4963;51.444;6.528;2022-10-26T03:11:49;5.33;;;2.20;;
9848;SDS011;4963;51.444;6.528;2022-10-26T03:14:15;6.13;;;2.20;;
9848;SDS011;4963;51.444;6.528;2022-10-26T03:16:42;7.50;;;2.57;;
9848;SDS011;4963;51.444;6.528;2022-10-26T03:19:09;3.97;;;2.30;;
9848;SDS011;4963;51.444;6.528;2022-10-26T03:21:36;4.80;;;2.03;;
9848;SDS011;4963;51.444;6.528;2022-10-26T03:24:04;3.27;;;1.73;;
9848;SDS011;4963;51.444;6.528;2022-10-26T03:26:32;5.03;;;2.20;;
9848;SDS011;4963;51.444;6.528;2022-10-26T03:28:58;5.77;;;1.97;;
9848;SDS011;4963;51.444;6.528;2022-10-26T03:31:25;2.17;;;1.50;;
9848;SDS011;4963;51.444;6.528;2022-10-26T03:33:52;3.47;;;2.20;;
9848;SDS011;4963;51.444;6.528;2022-10-26T03:36:19;5.63;;;2.47;;
9848;SDS011;4963;51.444;6.528;2022-10-26T03:38:45;6.07;;;2.37;;
9848;SDS011;4963;51.444;6.528;2022-10-26T03:41:13;6.87;;;2.33;;
9848;SDS011;4963;51.444;6.528;2022-10-26T03:43:40;8.57;;;2.00;;
9848;SDS011;4963;51.444;6.528;2022-10-26T03:46:07;9.40;;;2.20;;
9848;SDS011;4963;51.444;6.528;2022-10-26T03:48:34;4.97;;;2.20;;
9848;SDS011;4963;51.444;6.528;2022-10-26T03:51:00;3.70;;;2.10;;
9848;SDS011;4963;51.444;6.528;2022-10-26T03:53:27;5.20;;;2.00;;
9848;SDS011;4963;51.444;6.528;2022-10-26T03:55:54;2.83;;;1.70;;
9848;SDS011;4963;51.444;6.528;2022-10-26T03:58:22;3.40;;;1.80;;
9848;SDS011;4963;51.444;6.528;2022-10-26T04:00:49;6.97;;;2.50;;
9848;SDS011;4963;51.444;6.528;2022-10-26T04:03:16;5.30;;;2.00;;
9848;SDS011;4963;51.444;6.528;2022-10-26T04:05:43;6.77;;;2.00;;
9848;SDS011;4963;51.444;6.528;2022-10-26T04:08:09;5.70;;;2.20;;
9848;SDS011;4963;51.444;6.528;2022-10-26T04:10:36;4.23;;;1.90;;
9848;SDS011;4963;51.444;6.528;2022-10-26T04:13:03;2.87;;;1.90;;
9848;SDS011;4963;51.444;6.528;2022-10-26T04:15:31;4.80;;;1.87;;
9848;SDS011;4963;51.444;6.528;2022-10-26T04:17:58;3.90;;;2.23;;
9848;SDS011;4963;51.444;6.528;2022-10-26T04:20:27;2.43;;;1.73;;
9848;SDS011;4963;51.444;6.528;2022-10-26T04:22:56;7.33;;;2.50;;
9848;SDS011;4963;51.444;6.528;2022-10-26T04:25:23;3.00;;;1.83;;
9848;SDS011;4963;51.444;6.528;2022-10-26T04:27:50;3.27;;;1.77;;
9848;SDS011;4963;51.444;6.528;2022-10-26T04:30:17;5.50;;;2.03;;
9848;SDS011;4963;51.444;6.528;2022-10-26T04:32:45;3.93;;;1.80;;
9848;SDS011;4963;51.444;6.528;2022-10-26T04:35:12;4.40;;;1.93;;
9848;SDS011;4963;51.444;6.528;2022-10-26T04:37:39;2.90;;;1.73;;
9848;SDS011;4963;51.444;6.528;2022-10-26T04:40:06;6.00;;;1.83;;
9848;SDS011;4963;51.444;6.528;2022-10-26T04:42:39;5.57;;;2.03;;
9848;SDS011;4963;51.444;6.528;2022-10-26T04:45:06;4.97;;;1.77;;
9848;SDS011;4963;51.444;6.528;2022-10-26T04:47:34;4.53;;;2.23;;
9848;SDS011;4963;51.444;6.528;2022-10-26T04:50:02;3.60;;;2.03;;
9848;SDS011;4963;51.444;6.528;2022-10-26T04:52:29;6.63;;;2.13;;
9848;SDS011;4963;51.444;6.528;2022-10-26T04:54:56;5.57;;;1.90;;
9848;SDS011;4963;51.444;6.528;2022-10-26T04:57:23;6.23;;;2.00;;
9848;SDS011;4963;51.444;6.528;2022-10-26T04:59:50;5.93;;;2.30;;
9848;SDS011;4963;51.444;6.528;2022-10-26T05:02:17;6.37;;;2.23;;
9848;SDS011;4963;51.444;6.528;2022-10-26T05:04:45;9.77;;;2.30;;
9848;SDS011;4963;51.444;6.528;2022-10-26T05:07:13;5.70;;;1.80;;
9848;SDS011;4963;51.444;6.528;2022-10-26T05:09:40;3.93;;;2.03;;
9848;SDS011;4963;51.444;6.528;2022-10-26T05:12:07;5.47;;;2.27;;
9848;SDS011;4963;51.444;6.528;2022-10-26T05:14:33;5.40;;;2.03;;
9848;SDS011;4963;51.444;6.528;2022-10-26T05:17:00;3.73;;;2.00;;
9848;SDS011;4963;51.444;6.528;2022-10-26T05:19:27;4.87;;;1.77;;
9848;SDS011;4963;51.444;6.528;2022-10-26T05:21:54;4.47;;;1.83;;
9848;SDS011;4963;51.444;6.528;2022-10-26T05:24:22;9.37;;;2.40;;
9848;SDS011;4963;51.444;6.528;2022-10-26T05:26:48;8.83;;;2.47;;
9848;SDS011;4963;51.444;6.528;2022-10-26T05:29:15;4.40;;;1.80;;
9848;SDS011;4963;51.444;6.528;2022-10-26T05:31:42;9.47;;;2.47;;
9848;SDS011;4963;51.444;6.528;2022-10-26T05:34:09;4.90;;;2.10;;
9848;SDS011;4963;51.444;6.528;2022-10-26T05:36:35;4.37;;;2.00;;
9848;SDS011;4963;51.444;6.528;2022-10-26T05:39:02;4.33;;;2.27;;
9848;SDS011;4963;51.444;6.528;2022-10-26T05:41:30;2.63;;;1.90;;
9848;SDS011;4963;51.444;6.528;2022-10-26T05:43:57;5.77;;;2.00;;
9848;SDS011;4963;51.444;6.528;2022-10-26T05:46:24;5.70;;;1.87;;
9848;SDS011;4963;51.444;6.528;2022-10-26T05:48:51;7.93;;;2.30;;
9848;SDS011;4963;51.444;6.528;2022-10-26T05:51:18;6.03;;;2.30;;
9848;SDS011;4963;51.444;6.528;2022-10-26T05:53:44;7.73;;;2.87;;
9848;SDS011;4963;51.444;6.528;2022-10-26T05:56:14;4.80;;;2.10;;
9848;SDS011;4963;51.444;6.528;2022-10-26T05:58:46;5.47;;;2.87;;
9848;SDS011;4963;51.444;6.528;2022-10-26T06:01:18;4.43;;;2.40;;
9848;SDS011;4963;51.444;6.528;2022-10-26T06:03:54;6.30;;;2.07;;
9848;SDS011;4963;51.444;6.528;2022-10-26T06:06:37;7.20;;;2.40;;
9848;SDS011;4963;51.444;6.528;2022-10-26T06:09:07;4.87;;;2.30;;
9848;SDS011;4963;51.444;6.528;2022-10-26T06:11:36;5.00;;;2.30;;
9848;SDS011;4963;51.444;6.528;2022-10-26T06:14:05;5.67;;;2.67;;
9848;SDS011;4963;51.444;6.528;2022-10-26T06:16:34;5.77;;;2.70;;
9848;SDS011;4963;51.444;6.528;2022-10-26T06:19:14;6.03;;;3.07;;
9848;SDS011;4963;51.444;6.528;2022-10-26T06:21:53;8.70;;;3.30;;
9848;SDS011;4963;51.444;6.528;2022-10-26T06:24:30;4.33;;;3.03;;
9848;SDS011;4963;51.444;6.528;2022-10-26T06:27:07;7.80;;;3.03;;
9848;SDS011;4963;51.444;6.528;2022-10-26T06:29:47;8.70;;;2.60;;
9848;SDS011;4963;51.444;6.528;2022-10-26T06:32:19;3.93;;;2.43;;
9848;SDS011;4963;51.444;6.528;2022-10-26T06:34:48;5.90;;;2.60;;
9848;SDS011;4963;51.444;6.528;2022-10-26T06:37:17;7.07;;;2.70;;
9848;SDS011;4963;51.444;6.528;2022-10-26T06:39:45;4.53;;;2.20;;
9848;SDS011;4963;51.444;6.528;2022-10-26T06:42:14;5.13;;;2.67;;
9848;SDS011;4963;51.444;6.528;2022-10-26T06:44:42;6.70;;;2.20;;
9848;SDS011;4963;51.444;6.528;2022-10-26T06:47:11;4.27;;;2.50;;
9848;SDS011;4963;51.444;6.528;2022-10-26T06:49:47;6.87;;;2.60;;
9848;SDS011;4963;51.444;6.528;2022-10-26T06:52:24;7.37;;;2.97;;
9848;SDS011;4963;51.444;6.528;2022-10-26T06:54:57;6.17;;;3.63;;
9848;SDS011;4963;51.444;6.528;2022-10-26T06:57:26;9.53;;;3.67;;
9848;SDS011;4963;51.444;6.528;2022-10-26T06:59:57;7.27;;;3.57;;
9848;SDS011;4963;51.444;6.528;2022-10-26T07:02:28;5.97;;;3.10;;
9848;SDS011;4963;51.444;6.528;2022-10-26T07:04:55;7.00;;;3.20;;
9848;SDS011;4963;51.444;6.528;2022-10-26T07:07:22;4.07;;;2.73;;
9848;SDS011;4963;51.444;6.528;2022-10-26T07:09:51;5.83;;;3.10;;
9848;SDS011;4963;51.444;6.528;2022-10-26T07:12:19;8.37;;;3.30;;
9848;SDS011;4963;51.444;6.528;2022-10-26T07:14:45;9.83;;;3.53;;
9848;SDS011;4963;51.444;6.528;2022-10-26T07:17:12;6.60;;;3.53;;
9848;SDS011;4963;51.444;6.528;2022-10-26T07:19:42;5.43;;;3.60;;
9848;SDS011;4963;51.444;6.528;2022-10-26T07:22:09;6.03;;;2.83;;
9848;SDS011;4963;51.444;6.528;2022-10-26T07:24:36;6.73;;;2.97;;
9848;SDS011;4963;51.444;6.528;2022-10-26T07:27:03;8.17;;;3.60;;
9848;SDS011;4963;51.444;6.528;2022-10-26T07:29:30;6.73;;;3.03;;
9848;SDS011;4963;51.444;6.528;2022-10-26T07:31:57;8.13;;;2.97;;
9848;SDS011;4963;51.444;6.528;2022-10-26T07:34:24;5.07;;;2.90;;
9848;SDS011;4963;51.444;6.528;2022-10-26T07:36:52;4.00;;;2.60;;
9848;SDS011;4963;51.444;6.528;2022-10-26T07:39:19;7.37;;;3.00;;
9848;SDS011;4963;51.444;6.528;2022-10-26T07:41:46;8.00;;;2.90;;
9848;SDS011;4963;51.444;6.528;2022-10-26T07:44:13;7.97;;;3.23;;
9848;SDS011;4963;51.444;6.528;2022-10-26T07:46:39;6.10;;;2.90;;
9848;SDS011;4963;51.444;6.528;2022-10-26T07:49:06;10.47;;;3.20;;
9848;SDS011;4963;51.444;6.528;2022-10-26T07:51:33;5.83;;;2.50;;
9848;SDS011;4963;51.444;6.528;2022-10-26T07:54:01;6.00;;;3.03;;
9848;SDS011;4963;51.444;6.528;2022-10-26T07:56:28;5.93;;;2.60;;
9848;SDS011;4963;51.444;6.528;2022-10-26T07:58:54;6.23;;;2.60;;
9848;SDS011;4963;51.444;6.528;2022-10-26T08:01:22;6.40;;;2.73;;
9848;SDS011;4963;51.444;6.528;2022-10-26T08:03:50;4.37;;;2.40;;
9848;SDS011;4963;51.444;6.528;2022-10-26T08:06:17;4.87;;;2.60;;
9848;SDS011;4963;51.444;6.528;2022-10-26T08:08:44;6.20;;;2.63;;
9848;SDS011;4963;51.444;6.528;2022-10-26T08:11:13;4.10;;;2.00;;
9848;SDS011;4963;51.444;6.528;2022-10-26T08:13:40;3.63;;;2.30;;
9848;SDS011;4963;51.444;6.528;2022-10-26T08:16:07;5.67;;;2.40;;
9848;SDS011;4963;51.444;6.528;2022-10-26T08:18:34;5.37;;;2.60;;
9848;SDS011;4963;51.444;6.528;2022-10-26T08:21:01;5.23;;;2.40;;
9848;SDS011;4963;51.444;6.528;2022-10-26T08:23:29;8.07;;;2.33;;
9848;SDS011;4963;51.444;6.528;2022-10-26T08:25:57;4.93;;;2.37;;
9848;SDS011;4963;51.444;6.528;2022-10-26T08:28:26;5.77;;;2.53;;
9848;SDS011;4963;51.444;6.528;2022-10-26T08:30:53;5.47;;;2.13;;
9848;SDS011;4963;51.444;6.528;2022-10-26T08:33:20;4.17;;;2.10;;
9848;SDS011;4963;51.444;6.528;2022-10-26T08:35:48;4.97;;;2.30;;
9848;SDS011;4963;51.444;6.528;2022-10-26T08:38:19;6.13;;;2.47;;
9848;SDS011;4963;51.444;6.528;2022-10-26T08:40:46;9.33;;;2.97;;
9848;SDS011;4963;51.444;6.528;2022-10-26T08:43:14;4.30;;;1.97;;
9848;SDS011;4963;51.444;6.528;2022-10-26T08:45:47;5.50;;;2.23;;
9848;SDS011;4963;51.444;6.528;2022-10-26T08:48:18;5.50;;;2.60;;
9848;SDS011;4963;51.444;6.528;2022-10-26T08:50:50;4.47;;;2.23;;
9848;SDS011;4963;51.444;6.528;2022-10-26T08:53:20;4.60;;;2.13;;
9848;SDS011;4963;51.444;6.528;2022-10-26T08:55:52;5.00;;;1.90;;
9848;SDS011;4963;51.444;6.528;2022-10-26T08:58:24;4.90;;;1.93;;
9848;SDS011;4963;51.444;6.528;2022-10-26T09:00:57;4.47;;;2.27;;
9848;SDS011;4963;51.444;6.528;2022-10-26T09:03:24;4.30;;;2.43;;
9848;SDS011;4963;51.444;6.528;2022-10-26T09:06:02;3.93;;;1.90;;
9848;SDS011;4963;51.444;6.528;2022-10-26T09:08:39;3.30;;;1.87;;
9848;SDS011;4963;51.444;6.528;2022-10-26T09:11:14;6.03;;;2.30;;
9848;SDS011;4963;51.444;6.528;2022-10-26T09:13:55;5.57;;;2.40;;
9848;SDS011;4963;51.444;6.528;2022-10-26T09:16:29;4.23;;;2.00;;
9848;SDS011;4963;51.444;6.528;2022-10-26T09:19:09;5.27;;;2.03;;
9848;SDS011;4963;51.444;6.528;2022-10-26T09:21:52;6.10;;;2.03;;
9848;SDS011;4963;51.444;6.528;2022-10-26T09:24:24;6.50;;;2.20;;
9848;SDS011;4963;51.444;6.528;2022-10-26T09:26:57;5.83;;;2.30;;
9848;SDS011;4963;51.444;6.528;2022-10-26T09:29:28;4.73;;;2.53;;
9848;SDS011;4963;51.444;6.528;2022-10-26T09:32:01;4.87;;;2.43;;
9848;SDS011;4963;51.444;6.528;2022-10-26T09:34:30;6.00;;;2.30;;
9848;SDS011;4963;51.444;6.528;2022-10-26T09:37:04;5.80;;;2.17;;
9848;SDS011;4963;51.444;6.528;2022-10-26T09:39:40;7.13;;;2.10;;
9848;SDS011;4963;51.444;6.528;2022-10-26T09:42:13;5.37;;;2.30;;
9848;SDS011;4963;51.444;6.528;2022-10-26T09:44:44;4.60;;;2.20;;
9848;SDS011;4963;51.444;6.528;2022-10-26T09:47:26;4.13;;;2.37;;
9848;SDS011;4963;51.444;6.528;2022-10-26T09:49:57;5.23;;;2.40;;
9848;SDS011;4963;51.444;6.528;2022-10-26T09:52:30;4.43;;;2.00;;
9848;SDS011;4963;51.444;6.528;2022-10-26T09:54:57;4.47;;;2.10;;
9848;SDS011;4963;51.444;6.528;2022-10-26T09:57:23;5.05;;;2.40;;
9848;SDS011;4963;51.444;6.528;2022-10-26T09:59:51;3.87;;;2.27;;
9848;SDS011;4963;51.444;6.528;2022-10-26T10:02:37;5.20;;;2.10;;
9848;SDS011;4963;51.444;6.528;2022-10-26T10:05:20;5.20;;;2.35;;
9848;SDS011;4963;51.444;6.528;2022-10-26T10:07:53;6.03;;;2.20;;
9848;SDS011;4963;51.444;6.528;2022-10-26T10:10:35;5.50;;;2.47;;
9848;SDS011;4963;51.444;6.528;2022-10-26T10:13:13;5.90;;;2.38;;
9848;SDS011;4963;51.444;6.528;2022-10-26T10:15:44;4.40;;;2.28;;
9848;SDS011;4963;51.444;6.528;2022-10-26T10:18:19;4.40;;;2.07;;
9848;SDS011;4963;51.444;6.528;2022-10-26T10:20:50;3.63;;;2.20;;
9848;SDS011;4963;51.444;6.528;2022-10-26T10:23:27;8.32;;;2.63;;
9848;SDS011;4963;51.444;6.528;2022-10-26T10:25:59;4.72;;;2.22;;
9848;SDS011;4963;51.444;6.528;2022-10-26T10:28:28;4.32;;;2.47;;
9848;SDS011;4963;51.444;6.528;2022-10-26T10:30:56;5.65;;;2.17;;
9848;SDS011;4963;51.444;6.528;2022-10-26T10:36:12;11.15;;;2.78;;
9848;SDS011;4963;51.444;6.528;2022-10-26T10:38:42;5.35;;;2.35;;
9848;SDS011;4963;51.444;6.528;2022-10-26T10:41:14;4.28;;;2.45;;
9848;SDS011;4963;51.444;6.528;2022-10-26T10:43:47;3.13;;;2.08;;
9848;SDS011;4963;51.444;6.528;2022-10-26T10:46:17;4.88;;;2.15;;
9848;SDS011;4963;51.444;6.528;2022-10-26T10:48:49;7.70;;;3.05;;
9848;SDS011;4963;51.444;6.528;2022-10-26T10:51:27;4.75;;;2.20;;
9848;SDS011;4963;51.444;6.528;2022-10-26T10:53:56;7.15;;;2.70;;
9848;SDS011;4963;51.444;6.528;2022-10-26T10:56:28;6.30;;;2.30;;
9848;SDS011;4963;51.444;6.528;2022-10-26T10:59:04;5.93;;;2.80;;
9848;SDS011;4963;51.444;6.528;2022-10-26T11:01:46;6.47;;;2.58;;
9848;SDS011;4963;51.444;6.528;2022-10-26T11:04:22;5.68;;;2.58;;
9848;SDS011;4963;51.444;6.528;2022-10-26T11:07:02;5.05;;;2.38;;
9848;SDS011;4963;51.444;6.528;2022-10-26T11:09:32;4.47;;;2.40;;
9848;SDS011;4963;51.444;6.528;2022-10-26T11:12:04;5.90;;;2.47;;
9848;SDS011;4963;51.444;6.528;2022-10-26T11:14:37;6.28;;;2.45;;
9848;SDS011;4963;51.444;6.528;2022-10-26T11:17:10;4.43;;;2.33;;
9848;SDS011;4963;51.444;6.528;2022-10-26T11:19:47;5.65;;;2.63;;
9848;SDS011;4963;51.444;6.528;2022-10-26T11:22:18;6.88;;;2.70;;
9848;SDS011;4963;51.444;6.528;2022-10-26T11:24:49;8.30;;;2.38;;
9848;SDS011;4963;51.444;6.528;2022-10-26T11:27:22;3.38;;;1.85;;
9848;SDS011;4963;51.444;6.528;2022-10-26T11:29:54;5.40;;;2.33;;
9848;SDS011;4963;51.444;6.528;2022-10-26T11:32:27;7.78;;;2.63;;
9848;SDS011;4963;51.444;6.528;2022-10-26T11:35:02;3.50;;;2.15;;
9848;SDS011;4963;51.444;6.528;2022-10-26T11:37:35;7.55;;;2.65;;
9848;SDS011;4963;51.444;6.528;2022-10-26T11:40:13;11.32;;;2.20;;
9848;SDS011;4963;51.444;6.528;2022-10-26T11:42:49;3.65;;;2.15;;
9848;SDS011;4963;51.444;6.528;2022-10-26T11:45:22;4.05;;;2.25;;
9848;SDS011;4963;51.444;6.528;2022-10-26T11:47:53;7.15;;;2.15;;
9848;SDS011;4963;51.444;6.528;2022-10-26T11:50:29;3.95;;;1.98;;
9848;SDS011;4963;51.444;6.528;2022-10-26T11:53:00;4.53;;;1.70;;
9848;SDS011;4963;51.444;6.528;2022-10-26T11:55:33;5.10;;;1.90;;
9848;SDS011;4963;51.444;6.528;2022-10-26T11:58:00;5.60;;;1.90;;
9848;SDS011;4963;51.444;6.528;2022-10-26T12:00:28;5.95;;;1.95;;
9848;SDS011;4963;51.444;6.528;2022-10-26T12:03:00;4.22;;;2.00;;
9848;SDS011;4963;51.444;6.528;2022-10-26T12:05:33;4.30;;;1.90;;
9848;SDS011;4963;51.444;6.528;2022-10-26T12:08:09;8.63;;;2.10;;
9848;SDS011;4963;51.444;6.528;2022-10-26T12:10:40;4.75;;;2.03;;
9848;SDS011;4963;51.444;6.528;2022-10-26T12:13:14;3.45;;;1.92;;
9848;SDS011;4963;51.444;6.528;2022-10-26T12:15:49;5.25;;;1.77;;
9848;SDS011;4963;51.444;6.528;2022-10-26T12:18:25;4.32;;;1.65;;
9848;SDS011;4963;51.444;6.528;2022-10-26T12:21:02;4.75;;;1.80;;
9848;SDS011;4963;51.444;6.528;2022-10-26T12:23:32;3.72;;;1.33;;
9848;SDS011;4963;51.444;6.528;2022-10-26T12:41:18;4.13;;;1.80;;
9848;SDS011;4963;51.444;6.528;2022-10-26T12:43:56;2.67;;;1.50;;
9848;SDS011;4963;51.444;6.528;2022-10-26T12:52:30;5.75;;;1.83;;
9848;SDS011;4963;51.444;6.528;2022-10-26T12:58:21;2.38;;;1.35;;
9848;SDS011;4963;51.444;6.528;2022-10-26T13:04:06;2.63;;;1.50;;
9848;SDS011;4963;51.444;6.528;2022-10-26T13:06:51;5.22;;;1.80;;
9848;SDS011;4963;51.444;6.528;2022-10-26T13:09:37;3.15;;;1.60;;
9848;SDS011;4963;51.444;6.528;2022-10-26T13:12:04;3.90;;;1.55;;
9848;SDS011;4963;51.444;6.528;2022-10-26T13:14:33;6.95;;;1.85;;
9848;SDS011;4963;51.444;6.528;2022-10-26T13:17:05;3.75;;;1.67;;
9848;SDS011;4963;51.444;6.528;2022-10-26T13:19:47;2.60;;;1.60;;
9848;SDS011;4963;51.444;6.528;2022-10-26T13:22:20;3.97;;;1.67;;
9848;SDS011;4963;51.444;6.528;2022-10-26T13:24:49;2.67;;;1.65;;
9848;SDS011;4963;51.444;6.528;2022-10-26T13:33:19;3.53;;;1.80;;
9848;SDS011;4963;51.444;6.528;2022-10-26T13:35:53;3.67;;;1.55;;
9848;SDS011;4963;51.444;6.528;2022-10-26T13:38:24;4.25;;;1.75;;
9848;SDS011;4963;51.444;6.528;2022-10-26T13:40:58;4.18;;;1.58;;
9848;SDS011;4963;51.444;6.528;2022-10-26T13:43:31;5.25;;;1.77;;
9848;SDS011;4963;51.444;6.528;2022-10-26T13:46:01;4.07;;;1.60;;
9848;SDS011;4963;51.444;6.528;2022-10-26T13:48:32;4.47;;;1.67;;
9848;SDS011;4963;51.444;6.528;2022-10-26T13:51:04;2.78;;;1.48;;
9848;SDS011;4963;51.444;6.528;2022-10-26T13:53:40;2.45;;;1.42;;
9848;SDS011;4963;51.444;6.528;2022-10-26T13:56:14;3.22;;;1.50;;
9848;SDS011;4963;51.444;6.528;2022-10-26T13:58:44;3.85;;;1.55;;
9848;SDS011;4963;51.444;6.528;2022-10-26T14:01:16;2.70;;;1.58;;
9848;SDS011;4963;51.444;6.528;2022-10-26T14:03:46;4.10;;;1.67;;
9848;SDS011;4963;51.444;6.528;2022-10-26T14:06:14;5.22;;;1.88;;
9848;SDS011;4963;51.444;6.528;2022-10-26T14:08:45;3.40;;;1.90;;
9848;SDS011;4963;51.444;6.528;2022-10-26T14:11:14;3.72;;;1.70;;
9848;SDS011;4963;51.444;6.528;2022-10-26T14:13:44;2.97;;;1.33;;
9848;SDS011;4963;51.444;6.528;2022-10-26T14:16:12;3.15;;;1.63;;
9848;SDS011;4963;51.444;6.528;2022-10-26T14:18:43;5.35;;;1.95;;
9848;SDS011;4963;51.444;6.528;2022-10-26T14:21:13;4.40;;;1.70;;
9848;SDS011;4963;51.444;6.528;2022-10-26T14:23:46;3.60;;;1.70;;
9848;SDS011;4963;51.444;6.528;2022-10-26T14:26:18;4.35;;;1.70;;
9848;SDS011;4963;51.444;6.528;2022-10-26T14:28:47;4.80;;;1.85;;
9848;SDS011;4963;51.444;6.528;2022-10-26T14:31:19;3.22;;;1.80;;
9848;SDS011;4963;51.444;6.528;2022-10-26T14:33:48;5.43;;;1.80;;
9848;SDS011;4963;51.444;6.528;2022-10-26T14:36:16;3.75;;;1.73;;
9848;SDS011;4963;51.444;6.528;2022-10-26T14:38:47;4.72;;;1.70;;
9848;SDS011;4963;51.444;6.528;2022-10-26T14:41:16;3.42;;;2.10;;
9848;SDS011;4963;51.444;6.528;2022-10-26T14:43:44;2.75;;;1.88;;
9848;SDS011;4963;51.444;6.528;2022-10-26T14:46:11;7.13;;;1.88;;
9848;SDS011;4963;51.444;6.528;2022-10-26T14:48:48;5.80;;;1.77;;
9848;SDS011;4963;51.444;6.528;2022-10-26T14:51:19;2.95;;;1.75;;
9848;SDS011;4963;51.444;6.528;2022-10-26T14:53:47;5.13;;;1.67;;
9848;SDS011;4963;51.444;6.528;2022-10-26T14:56:17;3.83;;;1.70;;
9848;SDS011;4963;51.444;6.528;2022-10-26T14:58:47;4.50;;;1.80;;
9848;SDS011;4963;51.444;6.528;2022-10-26T15:01:22;4.35;;;1.52;;
9848;SDS011;4963;51.444;6.528;2022-10-26T15:03:55;3.75;;;1.73;;
9848;SDS011;4963;51.444;6.528;2022-10-26T15:09:29;7.82;;;2.53;;
9848;SDS011;4963;51.444;6.528;2022-10-26T15:11:58;5.60;;;2.00;;
9848;SDS011;4963;51.444;6.528;2022-10-26T15:14:27;6.15;;;2.10;;
9848;SDS011;4963;51.444;6.528;2022-10-26T15:16:54;4.85;;;1.95;;
9848;SDS011;4963;51.444;6.528;2022-10-26T15:19:23;5.75;;;1.85;;
9848;SDS011;4963;51.444;6.528;2022-10-26T15:21:53;4.75;;;1.85;;
9848;SDS011;4963;51.444;6.528;2022-10-26T15:24:24;4.95;;;1.95;;
9848;SDS011;4963;51.444;6.528;2022-10-26T15:26:54;6.80;;;1.77;;
9848;SDS011;4963;51.444;6.528;2022-10-26T15:29:37;4.18;;;2.10;;
9848;SDS011;4963;51.444;6.528;2022-10-26T15:32:19;4.82;;;2.38;;
9848;SDS011;4963;51.444;6.528;2022-10-26T15:35:21;4.57;;;1.92;;
9848;SDS011;4963;51.444;6.528;2022-10-26T15:37:52;3.70;;;1.98;;
9848;SDS011;4963;51.444;6.528;2022-10-26T15:40:21;4.03;;;1.80;;
9848;SDS011;4963;51.444;6.528;2022-10-26T15:42:49;5.07;;;1.73;;
9848;SDS011;4963;51.444;6.528;2022-10-26T15:45:17;5.60;;;2.10;;
9848;SDS011;4963;51.444;6.528;2022-10-26T15:47:46;3.80;;;2.05;;
9848;SDS011;4963;51.444;6.528;2022-10-26T15:50:14;3.47;;;1.67;;
9848;SDS011;4963;51.444;6.528;2022-10-26T15:52:42;4.82;;;2.30;;
9848;SDS011;4963;51.444;6.528;2022-10-26T15:55:11;4.68;;;1.90;;
9848;SDS011;4963;51.444;6.528;2022-10-26T15:57:38;4.97;;;2.08;;
9848;SDS011;4963;51.444;6.528;2022-10-26T16:00:05;6.10;;;2.08;;
9848;SDS011;4963;51.444;6.528;2022-10-26T16:02:33;5.10;;;2.17;;
9848;SDS011;4963;51.444;6.528;2022-10-26T16:05:03;4.80;;;2.13;;
9848;SDS011;4963;51.444;6.528;2022-10-26T16:07:31;5.45;;;2.35;;
9848;SDS011;4963;51.444;6.528;2022-10-26T16:09:58;7.40;;;2.40;;
9848;SDS011;4963;51.444;6.528;2022-10-26T16:12:26;6.45;;;2.13;;
9848;SDS011;4963;51.444;6.528;2022-10-26T16:14:53;6.90;;;2.15;;
9848;SDS011;4963;51.444;6.528;2022-10-26T16:17:19;6.03;;;1.90;;
9848;SDS011;4963;51.444;6.528;2022-10-26T16:19:46;2.78;;;1.88;;